sensor_id;sensor_type;location;lat;lon;timestamp;P1;durP1;ratioP1;P2;durP2;ratioP2
3131;SDS011;62090;52.330;9.104;2023-11-21T00:01:36;33.10;;;17.50;;
3131;SDS011;62090;52.330;9.104;2023-11-21T00:04:06;31.10;;;16.73;;
3131;SDS011;62090;52.330;9.104;2023-11-21T00:06:36;34.67;;;17.17;;
3131;SDS011;62090;52.330;9.104;2023-11-21T00:09:07;33.00;;;17.70;;
3131;SDS011;62090;52.330;9.104;2023-11-21T00:11:42;40.83;;;19.00;;
3131;SDS011;62090;52.330;9.104;2023-11-21T00:14:12;34.13;;;18.50;;
3131;SDS011;62090;52.330;9.104;2023-11-21T00:16:42;45.03;;;18.30;;
3131;SDS011;62090;52.330;9.104;2023-11-21T00:19:12;40.60;;;18.43;;
3131;SDS011;62090;52.330;9.104;2023-11-21T00:21:43;42.87;;;16.83;;
3131;SDS011;62090;52.330;9.104;2023-11-21T00:24:13;34.07;;;17.90;;
3131;SDS011;62090;52.330;9.104;2023-11-21T00:26:45;34.87;;;18.10;;
3131;SDS011;62090;52.330;9.104;2023-11-21T00:29:15;30.50;;;18.33;;
3131;SDS011;62090;52.330;9.104;2023-11-21T00:31:45;36.33;;;19.20;;
3131;SDS011;62090;52.330;9.104;2023-11-21T00:34:15;32.43;;;18.97;;
3131;SDS011;62090;52.330;9.104;2023-11-21T00:36:46;36.93;;;19.50;;
3131;SDS011;62090;52.330;9.104;2023-11-21T00:39:16;40.97;;;20.50;;
3131;SDS011;62090;52.330;9.104;2023-11-21T00:41:48;45.80;;;21.83;;
3131;SDS011;62090;52.330;9.104;2023-11-21T00:44:18;39.97;;;22.40;;
3131;SDS011;62090;52.330;9.104;2023-11-21T00:46:48;49.97;;;22.20;;
3131;SDS011;62090;52.330;9.104;2023-11-21T00:49:18;47.07;;;22.70;;
3131;SDS011;62090;52.330;9.104;2023-11-21T00:51:48;43.63;;;21.77;;
3131;SDS011;62090;52.330;9.104;2023-11-21T00:54:18;44.00;;;22.00;;
3131;SDS011;62090;52.330;9.104;2023-11-21T00:56:51;47.70;;;20.93;;
3131;SDS011;62090;52.330;9.104;2023-11-21T00:59:21;43.13;;;23.30;;
3131;SDS011;62090;52.330;9.104;2023-11-21T01:01:52;44.97;;;22.73;;
3131;SDS011;62090;52.330;9.104;2023-11-21T01:04:22;44.90;;;23.90;;
3131;SDS011;62090;52.330;9.104;2023-11-21T01:06:53;44.70;;;24.03;;
3131;SDS011;62090;52.330;9.104;2023-11-21T01:09:23;47.93;;;24.10;;
3131;SDS011;62090;52.330;9.104;2023-11-21T01:11:56;42.53;;;23.10;;
3131;SDS011;62090;52.330;9.104;2023-11-21T01:14:26;53.67;;;25.07;;
3131;SDS011;62090;52.330;9.104;2023-11-21T01:16:57;56.50;;;25.50;;
3131;SDS011;62090;52.330;9.104;2023-11-21T01:19:27;51.07;;;26.13;;
3131;SDS011;62090;52.330;9.104;2023-11-21T01:21:57;51.03;;;24.33;;
3131;SDS011;62090;52.330;9.104;2023-11-21T01:24:27;52.97;;;27.47;;
3131;SDS011;62090;52.330;9.104;2023-11-21T01:27:00;47.30;;;26.17;;
3131;SDS011;62090;52.330;9.104;2023-11-21T01:29:31;60.67;;;25.97;;
3131;SDS011;62090;52.330;9.104;2023-11-21T01:32:01;63.43;;;26.83;;
3131;SDS011;62090;52.330;9.104;2023-11-21T01:34:35;65.03;;;28.20;;
3131;SDS011;62090;52.330;9.104;2023-11-21T01:37:05;55.83;;;28.23;;
3131;SDS011;62090;52.330;9.104;2023-11-21T01:39:35;76.13;;;32.77;;
3131;SDS011;62090;52.330;9.104;2023-11-21T01:42:08;61.97;;;29.40;;
3131;SDS011;62090;52.330;9.104;2023-11-21T01:44:39;63.30;;;29.97;;
3131;SDS011;62090;52.330;9.104;2023-11-21T01:47:09;66.70;;;27.90;;
3131;SDS011;62090;52.330;9.104;2023-11-21T01:49:40;62.43;;;28.43;;
3131;SDS011;62090;52.330;9.104;2023-11-21T01:52:12;62.47;;;28.60;;
3131;SDS011;62090;52.330;9.104;2023-11-21T01:54:42;55.73;;;28.00;;
3131;SDS011;62090;52.330;9.104;2023-11-21T01:57:15;64.97;;;30.37;;
3131;SDS011;62090;52.330;9.104;2023-11-21T01:59:45;57.03;;;30.67;;
3131;SDS011;62090;52.330;9.104;2023-11-21T02:02:18;64.83;;;30.37;;
3131;SDS011;62090;52.330;9.104;2023-11-21T02:04:48;73.07;;;33.10;;
3131;SDS011;62090;52.330;9.104;2023-11-21T02:07:18;67.60;;;31.33;;
3131;SDS011;62090;52.330;9.104;2023-11-21T02:09:50;66.60;;;30.47;;
3131;SDS011;62090;52.330;9.104;2023-11-21T02:12:22;79.67;;;33.20;;
3131;SDS011;62090;52.330;9.104;2023-11-21T02:14:53;76.20;;;31.90;;
3131;SDS011;62090;52.330;9.104;2023-11-21T02:17:23;64.10;;;29.57;;
3131;SDS011;62090;52.330;9.104;2023-11-21T02:19:54;75.60;;;32.67;;
3131;SDS011;62090;52.330;9.104;2023-11-21T02:22:24;62.70;;;30.00;;
3131;SDS011;62090;52.330;9.104;2023-11-21T02:25:00;87.30;;;29.97;;
3131;SDS011;62090;52.330;9.104;2023-11-21T02:27:29;64.50;;;29.67;;
3131;SDS011;62090;52.330;9.104;2023-11-21T02:29:59;72.37;;;31.67;;
3131;SDS011;62090;52.330;9.104;2023-11-21T02:32:31;70.67;;;31.67;;
3131;SDS011;62090;52.330;9.104;2023-11-21T02:35:14;73.57;;;29.90;;
3131;SDS011;62090;52.330;9.104;2023-11-21T02:37:44;77.50;;;30.67;;
3131;SDS011;62090;52.330;9.104;2023-11-21T02:40:17;68.30;;;31.30;;
3131;SDS011;62090;52.330;9.104;2023-11-21T02:42:48;63.90;;;30.70;;
3131;SDS011;62090;52.330;9.104;2023-11-21T02:45:18;74.03;;;32.43;;
3131;SDS011;62090;52.330;9.104;2023-11-21T02:47:51;64.03;;;28.87;;
3131;SDS011;62090;52.330;9.104;2023-11-21T02:50:25;71.93;;;31.03;;
3131;SDS011;62090;52.330;9.104;2023-11-21T02:52:56;74.67;;;29.20;;
3131;SDS011;62090;52.330;9.104;2023-11-21T02:55:29;75.50;;;30.70;;
3131;SDS011;62090;52.330;9.104;2023-11-21T02:58:01;64.20;;;30.10;;
3131;SDS011;62090;52.330;9.104;2023-11-21T03:00:31;69.30;;;30.60;;
3131;SDS011;62090;52.330;9.104;2023-11-21T03:03:01;72.87;;;29.43;;
3131;SDS011;62090;52.330;9.104;2023-11-21T03:05:31;66.07;;;29.30;;
3131;SDS011;62090;52.330;9.104;2023-11-21T03:08:02;80.97;;;30.57;;
3131;SDS011;62090;52.330;9.104;2023-11-21T03:10:35;84.00;;;30.10;;
3131;SDS011;62090;52.330;9.104;2023-11-21T03:13:05;81.77;;;32.07;;
3131;SDS011;62090;52.330;9.104;2023-11-21T03:15:34;84.53;;;32.07;;
3131;SDS011;62090;52.330;9.104;2023-11-21T03:18:04;78.57;;;29.73;;
3131;SDS011;62090;52.330;9.104;2023-11-21T03:20:35;80.77;;;29.83;;
3131;SDS011;62090;52.330;9.104;2023-11-21T03:23:04;78.67;;;33.20;;
3131;SDS011;62090;52.330;9.104;2023-11-21T03:25:37;87.33;;;31.90;;
3131;SDS011;62090;52.330;9.104;2023-11-21T03:28:08;86.30;;;31.17;;
3131;SDS011;62090;52.330;9.104;2023-11-21T03:30:38;84.03;;;32.90;;
3131;SDS011;62090;52.330;9.104;2023-11-21T03:33:08;84.43;;;30.80;;
3131;SDS011;62090;52.330;9.104;2023-11-21T03:35:39;93.43;;;33.03;;
3131;SDS011;62090;52.330;9.104;2023-11-21T03:38:09;92.70;;;32.63;;
3131;SDS011;62090;52.330;9.104;2023-11-21T03:40:42;99.60;;;32.33;;
3131;SDS011;62090;52.330;9.104;2023-11-21T03:43:12;90.60;;;31.70;;
3131;SDS011;62090;52.330;9.104;2023-11-21T03:45:42;107.60;;;34.13;;
3131;SDS011;62090;52.330;9.104;2023-11-21T03:48:12;94.47;;;32.70;;
3131;SDS011;62090;52.330;9.104;2023-11-21T03:50:43;99.20;;;33.53;;
3131;SDS011;62090;52.330;9.104;2023-11-21T03:53:14;97.97;;;33.50;;
3131;SDS011;62090;52.330;9.104;2023-11-21T03:55:46;103.77;;;32.90;;
3131;SDS011;62090;52.330;9.104;2023-11-21T03:58:16;97.07;;;33.47;;
3131;SDS011;62090;52.330;9.104;2023-11-21T04:00:47;101.10;;;36.80;;
3131;SDS011;62090;52.330;9.104;2023-11-21T04:03:17;94.97;;;33.60;;
3131;SDS011;62090;52.330;9.104;2023-11-21T04:05:47;105.80;;;33.87;;
3131;SDS011;62090;52.330;9.104;2023-11-21T04:08:16;101.33;;;33.50;;
3131;SDS011;62090;52.330;9.104;2023-11-21T04:10:49;93.60;;;32.17;;
3131;SDS011;62090;52.330;9.104;2023-11-21T04:13:20;93.00;;;31.47;;
3131;SDS011;62090;52.330;9.104;2023-11-21T04:15:50;112.30;;;34.10;;
3131;SDS011;62090;52.330;9.104;2023-11-21T04:18:20;118.23;;;34.53;;
3131;SDS011;62090;52.330;9.104;2023-11-21T04:20:50;117.60;;;35.43;;
3131;SDS011;62090;52.330;9.104;2023-11-21T04:23:21;114.37;;;34.97;;
3131;SDS011;62090;52.330;9.104;2023-11-21T04:25:53;116.70;;;34.70;;
3131;SDS011;62090;52.330;9.104;2023-11-21T04:28:24;105.37;;;35.50;;
3131;SDS011;62090;52.330;9.104;2023-11-21T04:30:54;115.10;;;36.20;;
3131;SDS011;62090;52.330;9.104;2023-11-21T04:33:24;99.87;;;35.00;;
3131;SDS011;62090;52.330;9.104;2023-11-21T04:35:54;121.77;;;35.53;;
3131;SDS011;62090;52.330;9.104;2023-11-21T04:38:24;115.63;;;36.00;;
3131;SDS011;62090;52.330;9.104;2023-11-21T04:40:57;138.97;;;36.30;;
3131;SDS011;62090;52.330;9.104;2023-11-21T04:43:29;126.17;;;36.83;;
3131;SDS011;62090;52.330;9.104;2023-11-21T04:45:59;126.57;;;36.40;;
3131;SDS011;62090;52.330;9.104;2023-11-21T04:48:29;131.50;;;38.67;;
3131;SDS011;62090;52.330;9.104;2023-11-21T04:50:59;115.23;;;35.20;;
3131;SDS011;62090;52.330;9.104;2023-11-21T04:53:29;109.97;;;33.83;;
3131;SDS011;62090;52.330;9.104;2023-11-21T04:56:01;107.50;;;33.77;;
3131;SDS011;62090;52.330;9.104;2023-11-21T04:58:31;112.00;;;34.30;;
3131;SDS011;62090;52.330;9.104;2023-11-21T05:01:02;117.10;;;33.87;;
3131;SDS011;62090;52.330;9.104;2023-11-21T05:03:34;114.03;;;33.50;;
3131;SDS011;62090;52.330;9.104;2023-11-21T05:06:05;100.97;;;33.20;;
3131;SDS011;62090;52.330;9.104;2023-11-21T05:08:36;114.93;;;34.07;;
3131;SDS011;62090;52.330;9.104;2023-11-21T05:11:08;131.47;;;36.57;;
3131;SDS011;62090;52.330;9.104;2023-11-21T05:13:38;129.03;;;36.67;;
3131;SDS011;62090;52.330;9.104;2023-11-21T05:16:08;98.07;;;30.47;;
3131;SDS011;62090;52.330;9.104;2023-11-21T05:18:39;117.37;;;31.93;;
3131;SDS011;62090;52.330;9.104;2023-11-21T05:21:09;102.53;;;31.27;;
3131;SDS011;62090;52.330;9.104;2023-11-21T05:23:39;105.53;;;30.90;;
3131;SDS011;62090;52.330;9.104;2023-11-21T05:26:11;102.87;;;32.20;;
3131;SDS011;62090;52.330;9.104;2023-11-21T05:28:41;103.43;;;30.23;;
3131;SDS011;62090;52.330;9.104;2023-11-21T05:31:11;93.47;;;30.80;;
3131;SDS011;62090;52.330;9.104;2023-11-21T05:33:42;101.57;;;28.90;;
3131;SDS011;62090;52.330;9.104;2023-11-21T05:36:12;84.20;;;28.00;;
3131;SDS011;62090;52.330;9.104;2023-11-21T05:38:42;79.53;;;26.30;;
3131;SDS011;62090;52.330;9.104;2023-11-21T05:41:15;80.50;;;27.20;;
3131;SDS011;62090;52.330;9.104;2023-11-21T05:43:45;77.60;;;26.67;;
3131;SDS011;62090;52.330;9.104;2023-11-21T05:46:15;70.53;;;23.60;;
3131;SDS011;62090;52.330;9.104;2023-11-21T05:48:45;70.80;;;22.37;;
3131;SDS011;62090;52.330;9.104;2023-11-21T05:51:15;66.63;;;21.97;;
3131;SDS011;62090;52.330;9.104;2023-11-21T05:53:45;56.80;;;20.40;;
3131;SDS011;62090;52.330;9.104;2023-11-21T05:56:17;55.67;;;20.20;;
3131;SDS011;62090;52.330;9.104;2023-11-21T05:58:47;48.77;;;18.63;;
3131;SDS011;62090;52.330;9.104;2023-11-21T06:01:18;58.80;;;19.27;;
3131;SDS011;62090;52.330;9.104;2023-11-21T06:03:48;52.63;;;19.03;;
3131;SDS011;62090;52.330;9.104;2023-11-21T06:06:18;57.80;;;20.40;;
3131;SDS011;62090;52.330;9.104;2023-11-21T06:08:49;56.10;;;19.60;;
3131;SDS011;62090;52.330;9.104;2023-11-21T06:11:21;59.53;;;21.53;;
3131;SDS011;62090;52.330;9.104;2023-11-21T06:13:51;63.13;;;18.27;;
3131;SDS011;62090;52.330;9.104;2023-11-21T06:16:22;49.40;;;18.03;;
3131;SDS011;62090;52.330;9.104;2023-11-21T06:18:52;56.87;;;19.50;;
3131;SDS011;62090;52.330;9.104;2023-11-21T06:21:22;57.10;;;18.80;;
3131;SDS011;62090;52.330;9.104;2023-11-21T06:23:51;51.30;;;18.13;;
3131;SDS011;62090;52.330;9.104;2023-11-21T06:26:26;50.20;;;17.60;;
3131;SDS011;62090;52.330;9.104;2023-11-21T06:28:58;50.30;;;16.40;;
3131;SDS011;62090;52.330;9.104;2023-11-21T06:31:29;45.03;;;16.73;;
3131;SDS011;62090;52.330;9.104;2023-11-21T06:33:59;46.90;;;16.90;;
3131;SDS011;62090;52.330;9.104;2023-11-21T06:36:30;45.17;;;15.97;;
3131;SDS011;62090;52.330;9.104;2023-11-21T06:39:00;48.10;;;15.63;;
3131;SDS011;62090;52.330;9.104;2023-11-21T06:41:36;53.77;;;17.60;;
3131;SDS011;62090;52.330;9.104;2023-11-21T06:44:06;42.33;;;14.13;;
3131;SDS011;62090;52.330;9.104;2023-11-21T06:46:36;39.10;;;14.03;;
3131;SDS011;62090;52.330;9.104;2023-11-21T06:49:09;43.27;;;14.13;;
3131;SDS011;62090;52.330;9.104;2023-11-21T06:51:41;33.80;;;13.53;;
3131;SDS011;62090;52.330;9.104;2023-11-21T06:54:14;35.07;;;14.13;;
3131;SDS011;62090;52.330;9.104;2023-11-21T06:56:47;42.30;;;13.60;;
3131;SDS011;62090;52.330;9.104;2023-11-21T06:59:17;38.83;;;13.30;;
3131;SDS011;62090;52.330;9.104;2023-11-21T07:01:47;35.63;;;14.23;;
3131;SDS011;62090;52.330;9.104;2023-11-21T07:04:17;36.77;;;13.30;;
3131;SDS011;62090;52.330;9.104;2023-11-21T07:06:47;35.17;;;15.00;;
3131;SDS011;62090;52.330;9.104;2023-11-21T07:09:17;30.33;;;13.97;;
3131;SDS011;62090;52.330;9.104;2023-11-21T07:11:51;30.40;;;13.90;;
3131;SDS011;62090;52.330;9.104;2023-11-21T07:14:21;38.70;;;15.93;;
3131;SDS011;62090;52.330;9.104;2023-11-21T07:16:51;32.30;;;14.00;;
3131;SDS011;62090;52.330;9.104;2023-11-21T07:19:23;29.97;;;13.37;;
3131;SDS011;62090;52.330;9.104;2023-11-21T07:22:15;30.93;;;13.53;;
3131;SDS011;62090;52.330;9.104;2023-11-21T07:24:58;30.23;;;12.40;;
3131;SDS011;62090;52.330;9.104;2023-11-21T07:27:48;30.90;;;13.20;;
3131;SDS011;62090;52.330;9.104;2023-11-21T07:30:35;30.10;;;13.67;;
3131;SDS011;62090;52.330;9.104;2023-11-21T07:33:41;27.63;;;12.77;;
3131;SDS011;62090;52.330;9.104;2023-11-21T07:37:28;33.13;;;13.93;;
3131;SDS011;62090;52.330;9.104;2023-11-21T07:40:17;27.63;;;13.63;;
3131;SDS011;62090;52.330;9.104;2023-11-21T07:42:51;30.53;;;12.50;;
3131;SDS011;62090;52.330;9.104;2023-11-21T07:45:24;23.17;;;9.10;;
3131;SDS011;62090;52.330;9.104;2023-11-21T07:47:54;20.80;;;8.50;;
3131;SDS011;62090;52.330;9.104;2023-11-21T07:50:25;18.53;;;8.77;;
3131;SDS011;62090;52.330;9.104;2023-11-21T07:52:55;15.40;;;7.23;;
3131;SDS011;62090;52.330;9.104;2023-11-21T07:55:25;14.37;;;6.37;;
3131;SDS011;62090;52.330;9.104;2023-11-21T07:58:01;9.03;;;5.43;;
3131;SDS011;62090;52.330;9.104;2023-11-21T08:00:31;10.83;;;5.37;;
3131;SDS011;62090;52.330;9.104;2023-11-21T08:03:01;14.33;;;5.50;;
3131;SDS011;62090;52.330;9.104;2023-11-21T08:05:32;16.13;;;5.83;;
3131;SDS011;62090;52.330;9.104;2023-11-21T08:08:03;10.03;;;6.10;;
3131;SDS011;62090;52.330;9.104;2023-11-21T08:10:34;8.50;;;5.20;;
3131;SDS011;62090;52.330;9.104;2023-11-21T08:13:11;8.73;;;5.27;;
3131;SDS011;62090;52.330;9.104;2023-11-21T08:15:45;9.60;;;5.73;;
3131;SDS011;62090;52.330;9.104;2023-11-21T08:18:15;9.23;;;6.03;;
3131;SDS011;62090;52.330;9.104;2023-11-21T08:20:45;11.60;;;6.27;;
3131;SDS011;62090;52.330;9.104;2023-11-21T08:23:16;13.33;;;5.77;;
3131;SDS011;62090;52.330;9.104;2023-11-21T08:25:46;8.60;;;5.83;;
3131;SDS011;62090;52.330;9.104;2023-11-21T08:28:21;12.27;;;6.53;;
3131;SDS011;62090;52.330;9.104;2023-11-21T08:30:53;10.57;;;5.90;;
3131;SDS011;62090;52.330;9.104;2023-11-21T08:33:23;7.97;;;6.23;;
3131;SDS011;62090;52.330;9.104;2023-11-21T08:35:53;12.20;;;5.70;;
3131;SDS011;62090;52.330;9.104;2023-11-21T08:38:23;13.53;;;6.73;;
3131;SDS011;62090;52.330;9.104;2023-11-21T08:40:53;10.00;;;6.10;;
3131;SDS011;62090;52.330;9.104;2023-11-21T08:43:26;15.47;;;7.03;;
3131;SDS011;62090;52.330;9.104;2023-11-21T08:45:57;12.50;;;7.33;;
3131;SDS011;62090;52.330;9.104;2023-11-21T08:48:27;14.30;;;7.17;;
3131;SDS011;62090;52.330;9.104;2023-11-21T08:50:57;16.13;;;7.47;;
3131;SDS011;62090;52.330;9.104;2023-11-21T08:53:27;11.73;;;6.30;;
3131;SDS011;62090;52.330;9.104;2023-11-21T08:55:57;12.00;;;6.77;;
3131;SDS011;62090;52.330;9.104;2023-11-21T08:58:31;12.97;;;7.60;;
3131;SDS011;62090;52.330;9.104;2023-11-21T09:01:04;14.40;;;7.43;;
3131;SDS011;62090;52.330;9.104;2023-11-21T09:03:34;14.53;;;7.50;;
3131;SDS011;62090;52.330;9.104;2023-11-21T09:06:05;12.27;;;8.00;;
3131;SDS011;62090;52.330;9.104;2023-11-21T09:08:36;12.63;;;8.63;;
3131;SDS011;62090;52.330;9.104;2023-11-21T09:11:06;14.63;;;8.17;;
3131;SDS011;62090;52.330;9.104;2023-11-21T09:13:39;15.70;;;8.50;;
3131;SDS011;62090;52.330;9.104;2023-11-21T09:16:09;18.90;;;9.70;;
3131;SDS011;62090;52.330;9.104;2023-11-21T09:18:39;13.70;;;9.10;;
3131;SDS011;62090;52.330;9.104;2023-11-21T09:21:09;16.83;;;9.97;;
3131;SDS011;62090;52.330;9.104;2023-11-21T09:23:39;21.63;;;11.10;;
3131;SDS011;62090;52.330;9.104;2023-11-21T09:26:09;16.53;;;11.37;;
3131;SDS011;62090;52.330;9.104;2023-11-21T09:28:43;21.97;;;11.90;;
3131;SDS011;62090;52.330;9.104;2023-11-21T09:31:14;23.80;;;14.60;;
3131;SDS011;62090;52.330;9.104;2023-11-21T09:33:49;22.77;;;13.40;;
3131;SDS011;62090;52.330;9.104;2023-11-21T09:36:19;26.20;;;14.77;;
3131;SDS011;62090;52.330;9.104;2023-11-21T09:38:53;23.03;;;13.57;;
3131;SDS011;62090;52.330;9.104;2023-11-21T09:41:25;23.03;;;13.60;;
3131;SDS011;62090;52.330;9.104;2023-11-21T09:44:06;22.17;;;13.23;;
3131;SDS011;62090;52.330;9.104;2023-11-21T09:46:40;22.57;;;12.70;;
3131;SDS011;62090;52.330;9.104;2023-11-21T09:49:12;25.03;;;13.53;;
3131;SDS011;62090;52.330;9.104;2023-11-21T09:51:43;27.80;;;14.80;;
3131;SDS011;62090;52.330;9.104;2023-11-21T09:54:13;24.33;;;12.37;;
3131;SDS011;62090;52.330;9.104;2023-11-21T09:56:46;27.27;;;14.53;;
3131;SDS011;62090;52.330;9.104;2023-11-21T09:59:19;22.33;;;13.23;;
3131;SDS011;62090;52.330;9.104;2023-11-21T10:01:50;19.40;;;12.83;;
3131;SDS011;62090;52.330;9.104;2023-11-21T10:04:20;22.03;;;12.63;;
3131;SDS011;62090;52.330;9.104;2023-11-21T10:06:50;21.23;;;12.80;;
3131;SDS011;62090;52.330;9.104;2023-11-21T10:09:21;22.50;;;12.80;;
3131;SDS011;62090;52.330;9.104;2023-11-21T10:11:54;21.60;;;12.40;;
3131;SDS011;62090;52.330;9.104;2023-11-21T10:14:29;18.43;;;11.90;;
3131;SDS011;62090;52.330;9.104;2023-11-21T10:17:00;18.33;;;11.07;;
3131;SDS011;62090;52.330;9.104;2023-11-21T10:19:30;23.40;;;12.33;;
3131;SDS011;62090;52.330;9.104;2023-11-21T10:22:00;23.13;;;12.10;;
3131;SDS011;62090;52.330;9.104;2023-11-21T10:24:31;21.93;;;12.10;;
3131;SDS011;62090;52.330;9.104;2023-11-21T10:27:14;18.33;;;11.83;;
3131;SDS011;62090;52.330;9.104;2023-11-21T10:29:46;20.03;;;13.33;;
3131;SDS011;62090;52.330;9.104;2023-11-21T10:32:16;17.23;;;12.00;;
3131;SDS011;62090;52.330;9.104;2023-11-21T10:34:55;20.43;;;12.00;;
3131;SDS011;62090;52.330;9.104;2023-11-21T10:37:27;18.33;;;12.13;;
3131;SDS011;62090;52.330;9.104;2023-11-21T10:39:57;18.67;;;11.20;;
3131;SDS011;62090;52.330;9.104;2023-11-21T10:42:27;17.40;;;10.40;;
3131;SDS011;62090;52.330;9.104;2023-11-21T10:45:00;18.23;;;11.83;;
3131;SDS011;62090;52.330;9.104;2023-11-21T10:47:30;15.43;;;10.40;;
3131;SDS011;62090;52.330;9.104;2023-11-21T10:50:04;15.57;;;10.60;;
3131;SDS011;62090;52.330;9.104;2023-11-21T10:52:39;15.23;;;10.73;;
3131;SDS011;62090;52.330;9.104;2023-11-21T10:55:16;15.03;;;9.37;;
3131;SDS011;62090;52.330;9.104;2023-11-21T10:57:48;16.40;;;11.40;;
3131;SDS011;62090;52.330;9.104;2023-11-21T11:00:23;14.07;;;9.30;;
3131;SDS011;62090;52.330;9.104;2023-11-21T11:02:54;14.73;;;10.17;;
3131;SDS011;62090;52.330;9.104;2023-11-21T11:05:26;14.53;;;9.57;;
3131;SDS011;62090;52.330;9.104;2023-11-21T11:07:59;15.97;;;10.00;;
3131;SDS011;62090;52.330;9.104;2023-11-21T11:10:32;16.10;;;9.23;;
3131;SDS011;62090;52.330;9.104;2023-11-21T11:13:03;12.80;;;9.00;;
3131;SDS011;62090;52.330;9.104;2023-11-21T11:15:38;13.63;;;8.57;;
3131;SDS011;62090;52.330;9.104;2023-11-21T11:18:11;14.60;;;8.80;;
3131;SDS011;62090;52.330;9.104;2023-11-21T11:20:42;13.27;;;8.57;;
3131;SDS011;62090;52.330;9.104;2023-11-21T11:23:22;15.63;;;9.03;;
3131;SDS011;62090;52.330;9.104;2023-11-21T11:26:06;12.33;;;7.90;;
3131;SDS011;62090;52.330;9.104;2023-11-21T11:28:46;13.70;;;9.00;;
3131;SDS011;62090;52.330;9.104;2023-11-21T11:31:26;11.77;;;7.80;;
3131;SDS011;62090;52.330;9.104;2023-11-21T11:34:15;18.90;;;7.90;;
3131;SDS011;62090;52.330;9.104;2023-11-21T11:36:55;9.07;;;7.53;;
3131;SDS011;62090;52.330;9.104;2023-11-21T11:39:30;9.30;;;6.90;;
3131;SDS011;62090;52.330;9.104;2023-11-21T11:42:01;8.50;;;7.07;;
3131;SDS011;62090;52.330;9.104;2023-11-21T11:44:49;10.30;;;7.17;;
3131;SDS011;62090;52.330;9.104;2023-11-21T11:47:27;8.63;;;6.37;;
3131;SDS011;62090;52.330;9.104;2023-11-21T11:50:02;12.27;;;7.20;;
3131;SDS011;62090;52.330;9.104;2023-11-21T11:52:35;11.83;;;7.60;;
3131;SDS011;62090;52.330;9.104;2023-11-21T11:55:08;11.77;;;6.50;;
3131;SDS011;62090;52.330;9.104;2023-11-21T11:57:41;12.13;;;7.10;;
3131;SDS011;62090;52.330;9.104;2023-11-21T12:00:15;8.13;;;5.93;;
3131;SDS011;62090;52.330;9.104;2023-11-21T12:02:51;11.40;;;6.50;;
3131;SDS011;62090;52.330;9.104;2023-11-21T12:05:23;8.73;;;6.50;;
3131;SDS011;62090;52.330;9.104;2023-11-21T12:07:55;8.80;;;6.30;;
3131;SDS011;62090;52.330;9.104;2023-11-21T12:10:28;12.93;;;7.00;;
3131;SDS011;62090;52.330;9.104;2023-11-21T12:12:59;8.37;;;6.23;;
3131;SDS011;62090;52.330;9.104;2023-11-21T12:15:29;10.10;;;7.53;;
3131;SDS011;62090;52.330;9.104;2023-11-21T12:18:02;8.23;;;6.17;;
3131;SDS011;62090;52.330;9.104;2023-11-21T12:20:33;12.17;;;6.07;;
3131;SDS011;62090;52.330;9.104;2023-11-21T12:23:06;13.70;;;5.83;;
3131;SDS011;62090;52.330;9.104;2023-11-21T12:25:38;10.23;;;6.73;;
3131;SDS011;62090;52.330;9.104;2023-11-21T12:28:09;9.73;;;6.60;;
3131;SDS011;62090;52.330;9.104;2023-11-21T12:30:39;11.27;;;7.83;;
3131;SDS011;62090;52.330;9.104;2023-11-21T12:33:11;9.43;;;6.57;;
3131;SDS011;62090;52.330;9.104;2023-11-21T12:35:44;10.23;;;7.20;;
3131;SDS011;62090;52.330;9.104;2023-11-21T12:38:14;10.83;;;7.43;;
3131;SDS011;62090;52.330;9.104;2023-11-21T12:40:45;11.43;;;7.40;;
3131;SDS011;62090;52.330;9.104;2023-11-21T12:43:15;13.53;;;7.40;;
3131;SDS011;62090;52.330;9.104;2023-11-21T12:45:46;11.67;;;7.53;;
3131;SDS011;62090;52.330;9.104;2023-11-21T12:48:19;12.80;;;7.20;;
3131;SDS011;62090;52.330;9.104;2023-11-21T12:50:51;9.70;;;7.13;;
3131;SDS011;62090;52.330;9.104;2023-11-21T12:53:22;15.83;;;8.60;;
3131;SDS011;62090;52.330;9.104;2023-11-21T12:55:52;8.60;;;6.67;;
3131;SDS011;62090;52.330;9.104;2023-11-21T12:58:25;8.43;;;6.50;;
3131;SDS011;62090;52.330;9.104;2023-11-21T13:00:55;8.87;;;6.40;;
3131;SDS011;62090;52.330;9.104;2023-11-21T13:03:33;9.30;;;6.97;;
3131;SDS011;62090;52.330;9.104;2023-11-21T13:06:04;8.17;;;6.20;;
3131;SDS011;62090;52.330;9.104;2023-11-21T13:08:34;11.37;;;6.67;;
3131;SDS011;62090;52.330;9.104;2023-11-21T13:11:05;9.80;;;6.70;;
3131;SDS011;62090;52.330;9.104;2023-11-21T13:13:36;10.00;;;7.20;;
3131;SDS011;62090;52.330;9.104;2023-11-21T13:16:06;11.30;;;7.10;;
3131;SDS011;62090;52.330;9.104;2023-11-21T13:18:39;8.83;;;6.60;;
3131;SDS011;62090;52.330;9.104;2023-11-21T13:21:10;8.83;;;6.43;;
3131;SDS011;62090;52.330;9.104;2023-11-21T13:23:41;8.63;;;6.40;;
3131;SDS011;62090;52.330;9.104;2023-11-21T13:26:13;8.77;;;6.40;;
3131;SDS011;62090;52.330;9.104;2023-11-21T13:28:43;8.73;;;5.60;;
3131;SDS011;62090;52.330;9.104;2023-11-21T13:31:14;13.57;;;6.47;;
3131;SDS011;62090;52.330;9.104;2023-11-21T13:33:56;9.90;;;5.80;;
3131;SDS011;62090;52.330;9.104;2023-11-21T13:36:32;7.83;;;5.20;;
3131;SDS011;62090;52.330;9.104;2023-11-21T13:39:02;6.50;;;5.20;;
3131;SDS011;62090;52.330;9.104;2023-11-21T13:41:35;7.50;;;5.87;;
3131;SDS011;62090;52.330;9.104;2023-11-21T13:44:06;9.53;;;5.50;;
3131;SDS011;62090;52.330;9.104;2023-11-21T13:46:53;7.40;;;5.27;;
3131;SDS011;62090;52.330;9.104;2023-11-21T13:49:27;8.43;;;4.63;;
3131;SDS011;62090;52.330;9.104;2023-11-21T13:52:02;5.90;;;4.40;;
3131;SDS011;62090;52.330;9.104;2023-11-21T13:54:34;6.93;;;5.73;;
3131;SDS011;62090;52.330;9.104;2023-11-21T13:57:04;8.20;;;4.93;;
3131;SDS011;62090;52.330;9.104;2023-11-21T13:59:35;8.23;;;5.70;;
3131;SDS011;62090;52.330;9.104;2023-11-21T14:02:04;7.10;;;4.87;;
3131;SDS011;62090;52.330;9.104;2023-11-21T14:04:48;9.10;;;5.20;;
3131;SDS011;62090;52.330;9.104;2023-11-21T14:07:26;8.37;;;5.30;;
3131;SDS011;62090;52.330;9.104;2023-11-21T14:10:03;8.17;;;5.30;;
3131;SDS011;62090;52.330;9.104;2023-11-21T14:12:36;7.37;;;5.23;;
3131;SDS011;62090;52.330;9.104;2023-11-21T14:15:09;10.53;;;5.23;;
3131;SDS011;62090;52.330;9.104;2023-11-21T14:17:43;8.80;;;5.57;;
3131;SDS011;62090;52.330;9.104;2023-11-21T14:20:16;10.57;;;5.37;;
3131;SDS011;62090;52.330;9.104;2023-11-21T14:22:47;7.30;;;5.47;;
3131;SDS011;62090;52.330;9.104;2023-11-21T14:25:18;7.60;;;5.47;;
3131;SDS011;62090;52.330;9.104;2023-11-21T14:27:49;7.50;;;5.13;;
3131;SDS011;62090;52.330;9.104;2023-11-21T14:30:19;9.37;;;5.67;;
3131;SDS011;62090;52.330;9.104;2023-11-21T14:32:49;7.97;;;5.67;;
3131;SDS011;62090;52.330;9.104;2023-11-21T14:35:22;8.77;;;5.70;;
3131;SDS011;62090;52.330;9.104;2023-11-21T14:37:53;7.67;;;5.53;;
3131;SDS011;62090;52.330;9.104;2023-11-21T14:40:25;5.80;;;4.80;;
3131;SDS011;62090;52.330;9.104;2023-11-21T14:43:00;8.30;;;5.00;;
3131;SDS011;62090;52.330;9.104;2023-11-21T14:45:32;8.33;;;4.40;;
3131;SDS011;62090;52.330;9.104;2023-11-21T14:48:02;9.20;;;5.73;;
3131;SDS011;62090;52.330;9.104;2023-11-21T14:50:45;7.27;;;4.83;;
3131;SDS011;62090;52.330;9.104;2023-11-21T14:53:39;8.60;;;5.60;;
3131;SDS011;62090;52.330;9.104;2023-11-21T14:56:10;7.60;;;5.03;;
3131;SDS011;62090;52.330;9.104;2023-11-21T14:58:48;8.73;;;5.50;;
3131;SDS011;62090;52.330;9.104;2023-11-21T15:01:15;15.93;;;6.03;;
3131;SDS011;62090;52.330;9.104;2023-11-21T15:03:53;7.27;;;5.33;;
3131;SDS011;62090;52.330;9.104;2023-11-21T15:06:24;7.30;;;4.73;;
3131;SDS011;62090;52.330;9.104;2023-11-21T15:08:57;5.97;;;4.20;;
3131;SDS011;62090;52.330;9.104;2023-11-21T15:11:42;6.50;;;4.83;;